Time;durP1;ratioP1;P1;durP2;ratioP2;P2;SDS_P1;SDS_P2;PMS_P1;PMS_P2;Temp;Humidity;BMP_temperature;BMP_pressure;BME280_temperature;BME280_humidity;BME280_pressure;Samples;Min_cycle;Max_cycle;Signal;HPM_P1;HPM_P2
2023/05/04 00:01:52;;;;;;;0.57;0.57;;;17.00;44.80;;;;;;5061508;28;20536;-76
2023/05/04 00:04:19;;;;;;;0.07;0.07;;;17.20;44.60;;;;;;5048469;28;20033;-76
2023/05/04 00:06:45;;;;;;;0.00;0.00;;;17.10;44.70;;;;;;5060754;28;20827;-76
2023/05/04 00:09:12;;;;;;;0.47;0.47;;;17.00;45.20;;;;;;5039795;28;20043;-76
2023/05/04 00:11:38;;;;;;;0.20;0.20;;;17.00;44.80;;;;;;5060877;28;20024;-76
2023/05/04 00:14:04;;;;;;;0.10;0.10;;;17.00;44.90;;;;;;5030489;28;20143;-76
2023/05/04 00:16:30;;;;;;;0.20;0.20;;;17.10;44.20;;;;;;5063847;28;20025;-75
2023/05/04 00:18:55;;;;;;;0.00;0.00;;;17.30;43.50;;;;;;5061744;28;20111;-76
2023/05/04 00:21:21;;;;;;;0.13;0.13;;;17.00;44.60;;;;;;5047722;28;20074;-76
2023/05/04 00:23:47;;;;;;;0.00;0.00;;;17.10;43.70;;;;;;5054549;28;20029;-77
2023/05/04 00:26:12;;;;;;;0.00;0.00;;;17.00;44.70;;;;;;5046212;28;20746;-76
2023/05/04 00:28:38;;;;;;;0.30;0.30;;;16.90;44.20;;;;;;5062270;28;20044;-76
2023/05/04 00:31:04;;;;;;;0.10;0.10;;;16.80;44.60;;;;;;5062144;28;20033;-77
2023/05/04 00:33:30;;;;;;;0.17;0.17;;;16.90;44.30;;;;;;5063994;28;20028;-76
2023/05/04 00:35:56;;;;;;;0.20;0.20;;;16.90;44.10;;;;;;5043492;28;20282;-77
2023/05/04 00:38:21;;;;;;;0.00;0.00;;;16.80;44.10;;;;;;5060342;28;20020;-77
2023/05/04 00:40:47;;;;;;;0.10;0.10;;;16.90;44.20;;;;;;5059084;28;20024;-76
2023/05/04 00:43:13;;;;;;;0.63;0.40;;;16.80;44.40;;;;;;5062314;28;20162;-76
2023/05/04 00:45:39;;;;;;;0.10;0.10;;;16.60;45.00;;;;;;5061679;28;20255;-76
2023/05/04 00:48:05;;;;;;;0.10;0.10;;;16.90;44.80;;;;;;5044360;28;20021;-77
2023/05/04 00:50:31;;;;;;;0.00;0.00;;;16.60;45.00;;;;;;5061271;28;20135;-76
2023/05/04 00:53:00;;;;;;;0.27;0.27;;;16.60;45.50;;;;;;5052322;28;20603;-76
2023/05/04 00:55:26;;;;;;;0.10;0.10;;;16.70;44.50;;;;;;5062116;28;20044;-76
2023/05/04 00:57:52;;;;;;;0.10;0.10;;;16.80;44.20;;;;;;5054606;28;20044;-76
2023/05/04 01:00:18;;;;;;;0.00;0.00;;;16.70;44.70;;;;;;5061495;28;20026;-76
2023/05/04 01:02:44;;;;;;;0.10;0.10;;;16.80;44.20;;;;;;5060909;28;20700;-75
2023/05/04 01:05:13;;;;;;;0.10;0.10;;;16.70;44.40;;;;;;5055526;28;20279;-76
2023/05/04 01:07:51;;;;;;;0.00;0.00;;;16.60;44.80;;;;;;5058261;28;20369;-76
2023/05/04 01:10:41;;;;;;;0.03;0.03;;;16.60;44.40;;;;;;5058603;28;20032;-77
2023/05/04 01:13:15;;;;;;;0.10;0.10;;;16.60;44.30;;;;;;5056844;28;20123;-76
2023/05/04 01:15:41;;;;;;;0.00;0.00;;;16.70;43.80;;;;;;5056256;28;20020;-77
2023/05/04 01:18:07;;;;;;;0.10;0.10;;;16.50;45.00;;;;;;5062792;28;20036;-75
2023/05/04 01:20:34;;;;;;;0.30;0.30;;;16.50;44.30;;;;;;5060030;28;20029;-75
2023/05/04 01:23:00;;;;;;;0.38;0.20;;;16.40;44.60;;;;;;5060795;28;20614;-76
2023/05/04 01:25:38;;;;;;;0.10;0.10;;;16.40;44.50;;;;;;5055970;28;20111;-76
2023/05/04 01:28:11;;;;;;;0.20;0.20;;;16.40;44.20;;;;;;5057518;28;20025;-76
2023/05/04 01:30:41;;;;;;;0.10;0.10;;;16.50;44.20;;;;;;5059648;28;20045;-76
2023/05/04 01:33:07;;;;;;;2.40;0.75;;;16.20;45.40;;;;;;5059691;28;20099;-76
2023/05/04 01:35:34;;;;;;;0.10;0.10;;;16.30;44.60;;;;;;5058698;28;20029;-76
2023/05/04 01:37:59;;;;;;;0.00;0.00;;;16.30;44.50;;;;;;5059360;28;20122;-76
2023/05/04 01:40:25;;;;;;;0.30;0.27;;;16.00;45.90;;;;;;5058786;28;20127;-76
2023/05/04 01:42:51;;;;;;;0.10;0.10;;;15.90;46.10;;;;;;5035974;28;20029;-76
2023/05/04 01:45:17;;;;;;;1.97;0.77;;;15.90;45.60;;;;;;5055526;28;20078;-77
2023/05/04 01:47:43;;;;;;;0.00;0.00;;;15.80;46.60;;;;;;5061770;28;20105;-76
2023/05/04 01:50:09;;;;;;;0.00;0.00;;;15.60;46.50;;;;;;5056272;28;20048;-76
2023/05/04 01:52:35;;;;;;;0.07;0.07;;;15.70;46.70;;;;;;5042285;28;20032;-76
2023/05/04 01:55:00;;;;;;;0.10;0.10;;;15.90;45.50;;;;;;5062079;28;20040;-76
2023/05/04 01:57:26;;;;;;;0.00;0.00;;;16.00;45.60;;;;;;5055713;28;20033;-76
2023/05/04 01:59:52;;;;;;;0.00;0.00;;;16.00;45.60;;;;;;5053896;28;20061;-77
2023/05/04 02:02:18;;;;;;;1.50;0.63;;;16.00;45.30;;;;;;5057224;28;20094;-76
2023/05/04 02:04:43;;;;;;;0.00;0.00;;;16.00;45.50;;;;;;5052729;28;20095;-76
2023/05/04 02:07:09;;;;;;;0.00;0.00;;;16.20;45.00;;;;;;5061943;28;20031;-75
2023/05/04 02:09:35;;;;;;;0.10;0.10;;;16.00;45.30;;;;;;5060258;28;20029;-76
2023/05/04 02:12:02;;;;;;;0.28;0.28;;;16.10;45.50;;;;;;5060341;28;20021;-76
2023/05/04 02:14:27;;;;;;;0.03;0.03;;;15.80;45.90;;;;;;5050282;28;20593;-76
2023/05/04 02:16:54;;;;;;;0.43;0.20;;;15.80;46.10;;;;;;5051910;28;20020;-76
2023/05/04 02:19:20;;;;;;;0.22;0.22;;;15.90;46.30;;;;;;5054021;28;20029;-76
2023/05/04 02:21:46;;;;;;;0.08;0.08;;;15.90;45.90;;;;;;5056045;28;20067;-77
2023/05/04 02:24:12;;;;;;;1.10;0.40;;;15.80;46.30;;;;;;5058008;28;20017;-78
2023/05/04 02:26:38;;;;;;;0.07;0.07;;;16.00;46.20;;;;;;5058866;28;20649;-76
2023/05/04 02:29:04;;;;;;;0.03;0.03;;;15.80;46.60;;;;;;5048340;28;20678;-76
2023/05/04 02:31:33;;;;;;;0.70;0.70;;;15.70;47.20;;;;;;5052797;28;20597;-77
2023/05/04 02:34:00;;;;;;;0.55;0.55;;;15.80;47.10;;;;;;5040033;28;20036;-76
2023/05/04 02:36:26;;;;;;;0.28;0.28;;;15.70;47.10;;;;;;5039297;28;20326;-77
2023/05/04 02:38:53;;;;;;;0.23;0.20;;;15.80;47.20;;;;;;5047202;28;20558;-75
2023/05/04 02:41:19;;;;;;;0.00;0.00;;;15.80;47.50;;;;;;5051074;28;20029;-76
2023/05/04 02:43:45;;;;;;;0.10;0.10;;;16.10;46.90;;;;;;5051410;28;20028;-77
2023/05/04 02:46:11;;;;;;;0.13;0.13;;;16.10;47.30;;;;;;5048864;28;20050;-76
2023/05/04 02:48:36;;;;;;;0.23;0.23;;;16.10;47.40;;;;;;5056643;28;20070;-75
2023/05/04 02:51:02;;;;;;;0.13;0.13;;;16.00;48.10;;;;;;5050545;28;20037;-76
2023/05/04 02:53:28;;;;;;;0.20;0.20;;;16.00;47.70;;;;;;5052318;28;20661;-75
2023/05/04 02:55:53;;;;;;;0.20;0.20;;;16.10;47.70;;;;;;5055695;28;20047;-76
2023/05/04 02:58:19;;;;;;;0.10;0.10;;;16.10;48.00;;;;;;5058839;28;20157;-75
2023/05/04 03:00:45;;;;;;;0.20;0.20;;;16.10;48.20;;;;;;5057601;28;20025;-75
2023/05/04 03:03:11;;;;;;;0.43;0.43;;;16.10;48.40;;;;;;5026537;28;20024;-76
2023/05/04 03:05:37;;;;;;;0.10;0.10;;;16.10;48.90;;;;;;5054023;28;20029;-75
2023/05/04 03:08:03;;;;;;;0.30;0.30;;;15.90;49.30;;;;;;5053025;28;20514;-75
2023/05/04 03:10:28;;;;;;;0.20;0.20;;;15.90;49.30;;;;;;5055621;28;20427;-75
2023/05/04 03:12:54;;;;;;;0.20;0.20;;;15.80;49.90;;;;;;5043550;28;20025;-74
2023/05/04 03:15:20;;;;;;;0.10;0.10;;;15.90;49.90;;;;;;5057948;28;20020;-75
2023/05/04 03:17:46;;;;;;;0.47;0.47;;;15.90;49.80;;;;;;5049106;28;20082;-76
2023/05/04 03:20:12;;;;;;;0.10;0.10;;;15.70;50.40;;;;;;5054834;28;20083;-75
2023/05/04 03:22:38;;;;;;;0.32;0.32;;;15.80;50.30;;;;;;5041756;28;20039;-75
2023/05/04 03:25:05;;;;;;;0.10;0.10;;;15.80;50.70;;;;;;5051572;28;20048;-75
2023/05/04 03:27:30;;;;;;;;;;;15.70;50.90;;;;;;5046985;28;20020;-75
2023/05/04 03:29:56;;;;;;;0.13;0.13;;;15.60;51.10;;;;;;5053625;28;19920;-76
2023/05/04 03:32:23;;;;;;;0.00;0.00;;;15.70;51.00;;;;;;5052795;28;20037;-75
2023/05/04 03:34:49;;;;;;;0.00;0.00;;;15.80;51.10;;;;;;5046216;28;20090;-75
2023/05/04 03:37:14;;;;;;;0.10;0.10;;;15.70;50.90;;;;;;5061309;28;20029;-75
2023/05/04 03:39:40;;;;;;;0.03;0.03;;;15.70;51.20;;;;;;5055822;28;20518;-76
2023/05/04 03:42:06;;;;;;;0.30;0.30;;;15.70;51.40;;;;;;5050396;28;20032;-76
2023/05/04 03:44:31;;;;;;;10.30;1.10;;;15.60;51.50;;;;;;5051858;28;20608;-75
2023/05/04 03:46:57;;;;;;;0.20;0.20;;;15.50;51.70;;;;;;5049682;28;20976;-75
2023/05/04 03:49:23;;;;;;;0.10;0.10;;;15.60;51.40;;;;;;5058771;28;20028;-75
2023/05/04 03:51:48;;;;;;;0.00;0.00;;;15.50;51.30;;;;;;5055977;28;20033;-76
2023/05/04 03:54:14;;;;;;;0.30;0.30;;;15.40;51.50;;;;;;5047567;28;20033;-75
2023/05/04 03:56:40;;;;;;;0.63;0.60;;;15.00;55.70;;;;;;5058090;28;20029;-76
2023/05/04 03:59:06;;;;;;;0.10;0.10;;;14.80;56.90;;;;;;5020822;28;20504;-75
2023/05/04 04:01:31;;;;;;;0.20;0.20;;;14.60;57.60;;;;;;5019422;28;20770;-77
2023/05/04 04:04:00;;;;;;;0.10;0.10;;;14.60;58.00;;;;;;5009700;28;20036;-75
2023/05/04 04:06:25;;;;;;;0.10;0.10;;;14.50;57.80;;;;;;5014985;28;20037;-76
2023/05/04 04:08:51;;;;;;;0.28;0.28;;;14.50;57.30;;;;;;5018132;28;20029;-76
2023/05/04 04:11:17;;;;;;;0.10;0.10;;;14.50;58.00;;;;;;5015896;28;20451;-75
2023/05/04 04:13:42;;;;;;;0.20;0.20;;;14.40;58.80;;;;;;5018992;28;20476;-76
2023/05/04 04:16:08;;;;;;;0.20;0.20;;;14.20;59.30;;;;;;5013935;28;20025;-76
2023/05/04 04:18:34;;;;;;;1.10;0.75;;;14.30;58.20;;;;;;5023886;28;20643;-76
2023/05/04 04:20:59;;;;;;;0.00;0.00;;;14.30;58.90;;;;;;5022134;28;20896;-76
2023/05/04 04:23:25;;;;;;;4.68;1.45;;;14.20;59.70;;;;;;5021973;28;20025;-75
2023/05/04 04:25:52;;;;;;;0.00;0.00;;;14.20;60.30;;;;;;5015436;28;20637;-76
2023/05/04 04:28:18;;;;;;;0.30;0.30;;;14.10;61.10;;;;;;5020388;28;20021;-75
2023/05/04 04:30:45;;;;;;;0.10;0.10;;;14.20;60.80;;;;;;5021546;28;20041;-75
2023/05/04 04:33:10;;;;;;;0.10;0.10;;;14.30;61.20;;;;;;5021140;28;20029;-75
2023/05/04 04:35:36;;;;;;;0.13;0.13;;;14.20;61.10;;;;;;5021066;28;20029;-75
2023/05/04 04:38:02;;;;;;;0.70;0.63;;;14.20;62.40;;;;;;5019172;28;20476;-74
2023/05/04 04:40:28;;;;;;;0.10;0.10;;;14.00;63.10;;;;;;5024659;28;20026;-75
2023/05/04 04:42:53;;;;;;;0.10;0.10;;;14.00;63.90;;;;;;5018551;28;20710;-75
2023/05/04 04:45:19;;;;;;;0.10;0.10;;;13.90;64.60;;;;;;5018000;28;20564;-75
2023/05/04 04:47:46;;;;;;;0.20;0.20;;;13.90;64.10;;;;;;5018393;28;20033;-76
2023/05/04 04:50:11;;;;;;;0.32;0.32;;;13.90;64.30;;;;;;5013801;28;20320;-75
2023/05/04 04:52:37;;;;;;;0.75;0.35;;;14.00;63.40;;;;;;5018075;28;20029;-76
2023/05/04 04:55:03;;;;;;;0.10;0.10;;;14.20;62.50;;;;;;5020505;28;20029;-76
2023/05/04 04:57:29;;;;;;;1.20;0.47;;;14.30;62.80;;;;;;5020574;28;20037;-76
2023/05/04 04:59:56;;;;;;;0.15;0.15;;;14.40;62.30;;;;;;5054793;28;20358;-76
2023/05/04 05:02:21;;;;;;;0.68;0.35;;;14.70;61.00;;;;;;5057845;28;20510;-77
2023/05/04 05:04:48;;;;;;;0.10;0.10;;;15.10;59.60;;;;;;5042391;28;20040;-77
2023/05/04 05:07:14;;;;;;;0.10;0.10;;;15.10;60.00;;;;;;5057918;28;20056;-76
2023/05/04 05:09:40;;;;;;;0.73;0.70;;;15.00;60.50;;;;;;5038170;28;20095;-77
2023/05/04 05:12:05;;;;;;;0.20;0.20;;;15.60;59.80;;;;;;5050161;28;21103;-77
2023/05/04 05:14:31;;;;;;;0.10;0.10;;;16.00;59.00;;;;;;5049565;28;20028;-78
2023/05/04 05:16:58;;;;;;;0.20;0.20;;;16.70;57.60;;;;;;5052253;28;20072;-77
2023/05/04 05:19:24;;;;;;;0.22;0.10;;;17.30;56.30;;;;;;5052186;28;20097;-78
2023/05/04 05:21:49;;;;;;;0.10;0.10;;;17.50;55.40;;;;;;5046514;28;20036;-78
2023/05/04 05:24:16;;;;;;;0.67;0.43;;;17.60;55.10;;;;;;5044443;28;20025;-78
2023/05/04 05:26:41;;;;;;;0.25;0.20;;;17.20;55.60;;;;;;5045537;28;20253;-79
2023/05/04 05:29:08;;;;;;;0.10;0.10;;;17.70;55.10;;;;;;5057758;28;20488;-78
2023/05/04 05:31:34;;;;;;;0.00;0.00;;;17.50;54.00;;;;;;5055313;28;20036;-78
2023/05/04 05:33:59;;;;;;;0.00;0.00;;;17.20;55.30;;;;;;5039134;28;20062;-79
2023/05/04 05:36:26;;;;;;;1.40;0.87;;;17.10;55.70;;;;;;5036112;28;20102;-77
2023/05/04 05:38:51;;;;;;;0.03;0.03;;;17.30;55.80;;;;;;5052859;28;20498;-78
2023/05/04 05:41:18;;;;;;;0.30;0.30;;;17.20;56.10;;;;;;5033388;28;20037;-78
2023/05/04 05:43:43;;;;;;;0.10;0.10;;;18.00;54.30;;;;;;5047685;28;20020;-77
2023/05/04 05:46:09;;;;;;;0.00;0.00;;;17.40;55.70;;;;;;5059738;28;20043;-77
2023/05/04 05:48:35;;;;;;;0.57;0.40;;;17.10;55.80;;;;;;5056100;28;20024;-76
2023/05/04 05:51:01;;;;;;;0.20;0.20;;;16.70;57.30;;;;;;5035536;28;20048;-77
2023/05/04 05:53:26;;;;;;;0.00;0.00;;;17.40;56.20;;;;;;5043787;28;20029;-78
2023/05/04 05:55:52;;;;;;;0.23;0.13;;;16.80;57.60;;;;;;5050561;28;20033;-79
2023/05/04 05:58:18;;;;;;;0.00;0.00;;;16.60;58.70;;;;;;5031476;28;20488;-79
2023/05/04 06:00:43;;;;;;;0.00;0.00;;;16.60;59.20;;;;;;5051623;28;20609;-78
2023/05/04 06:03:09;;;;;;;0.07;0.07;;;16.50;59.20;;;;;;5058428;28;20047;-78
2023/05/04 06:05:34;;;;;;;0.20;0.20;;;16.50;58.80;;;;;;5057678;28;20029;-79
2023/05/04 06:08:00;;;;;;;0.20;0.20;;;16.60;60.70;;;;;;5058618;28;20028;-79
2023/05/04 06:10:26;;;;;;;0.00;0.00;;;16.60;61.90;;;;;;5058337;28;20108;-78
2023/05/04 06:12:52;;;;;;;0.40;0.40;;;16.60;62.60;;;;;;5051361;28;20037;-77
2023/05/04 06:15:18;;;;;;;0.10;0.10;;;16.90;63.50;;;;;;5032478;28;20316;-77
2023/05/04 06:17:44;;;;;;;0.15;0.15;;;17.40;62.20;;;;;;5058769;28;20039;-74
2023/05/04 06:20:10;;;;;;;0.30;0.30;;;18.30;61.10;;;;;;5045399;28;20029;-77
2023/05/04 06:22:36;;;;;;;0.00;0.00;;;17.70;62.90;;;;;;5044704;28;20444;-77
2023/05/04 06:25:02;;;;;;;0.33;0.17;;;17.70;64.00;;;;;;5045369;28;20139;-78
2023/05/04 06:27:30;;;;;;;0.15;0.15;;;17.80;64.00;;;;;;5051125;28;20028;-78
2023/05/04 06:29:56;;;;;;;0.43;0.40;;;17.90;65.00;;;;;;5060553;28;20171;-78
2023/05/04 06:32:21;;;;;;;0.00;0.00;;;18.60;64.50;;;;;;5041606;28;20592;-79
2023/05/04 06:34:47;;;;;;;0.20;0.20;;;19.70;61.60;;;;;;5051152;28;20025;-78
2023/05/04 06:37:13;;;;;;;0.10;0.10;;;20.20;61.00;;;;;;5055424;28;20032;-79
2023/05/04 06:39:38;;;;;;;0.17;0.17;;;20.30;60.30;;;;;;5049354;28;20032;-78
2023/05/04 06:42:04;;;;;;;0.10;0.10;;;19.80;62.10;;;;;;5046594;28;20033;-79
2023/05/04 06:44:35;;;;;;;0.20;0.20;;;19.50;64.10;;;;;;5054289;28;20120;-79
2023/05/04 06:47:00;;;;;;;0.17;0.17;;;19.40;64.80;;;;;;5058238;28;20032;-78
2023/05/04 06:49:30;;;;;;;0.17;0.17;;;20.80;62.40;;;;;;5048377;28;20705;-79
2023/05/04 06:51:56;;;;;;;0.45;0.45;;;20.10;63.00;;;;;;5035400;28;20039;-79
2023/05/04 06:54:24;;;;;;;0.17;0.17;;;21.20;61.70;;;;;;5047895;28;20033;-78
2023/05/04 06:56:50;;;;;;;0.20;0.20;;;20.80;61.70;;;;;;5042003;28;20063;-78
2023/05/04 06:59:19;;;;;;;0.20;0.20;;;20.90;63.00;;;;;;5023454;28;20064;-78
2023/05/04 07:01:47;;;;;;;0.08;0.08;;;22.80;59.00;;;;;;5052906;28;20089;-78
2023/05/04 07:04:15;;;;;;;2.17;1.30;;;25.10;56.50;;;;;;5041774;28;20831;-79
2023/05/04 07:06:42;;;;;;;0.40;0.40;;;24.90;54.30;;;;;;5043099;28;20113;-79
2023/05/04 07:09:08;;;;;;;1.17;0.77;;;23.10;57.20;;;;;;5049231;28;20028;-79
2023/05/04 07:11:33;;;;;;;0.40;0.40;;;21.60;61.30;;;;;;5044501;28;20106;-79
2023/05/04 07:13:59;;;;;;;0.20;0.20;;;21.20;62.10;;;;;;5049352;28;20035;-79
2023/05/04 07:16:25;;;;;;;0.13;0.13;;;21.00;64.10;;;;;;5059692;28;20804;-79
2023/05/04 07:18:51;;;;;;;0.73;0.38;;;20.20;65.40;;;;;;5060660;28;20047;-78
2023/05/04 07:21:17;;;;;;;0.00;0.00;;;19.40;67.60;;;;;;5041744;28;20758;-78
2023/05/04 07:23:42;;;;;;;0.10;0.10;;;18.70;70.80;;;;;;5059629;28;20499;-78
2023/05/04 07:26:08;;;;;;;0.20;0.20;;;18.00;73.80;;;;;;5059932;28;20094;-78
2023/05/04 07:28:34;;;;;;;0.50;0.50;;;18.30;74.00;;;;;;5059377;28;20044;-78
2023/05/04 07:31:00;;;;;;;0.47;0.40;;;19.10;72.20;;;;;;5052396;28;20048;-78
2023/05/04 07:33:25;;;;;;;0.30;0.30;;;19.90;71.00;;;;;;5059071;28;20031;-79
2023/05/04 07:35:58;;;;;;;0.20;0.20;;;20.00;69.80;;;;;;5056318;28;20756;-78
2023/05/04 07:38:25;;;;;;;0.35;0.35;;;18.70;72.60;;;;;;5054705;28;20060;-78
2023/05/04 07:40:55;;;;;;;0.20;0.20;;;18.20;74.40;;;;;;5055708;28;20028;-79
2023/05/04 07:43:22;;;;;;;0.13;0.13;;;18.50;74.10;;;;;;5047885;28;20508;-79
2023/05/04 07:45:48;;;;;;;0.20;0.20;;;18.10;74.30;;;;;;5064873;28;20545;-78
2023/05/04 07:48:14;;;;;;;0.28;0.28;;;18.00;75.90;;;;;;5064904;28;20259;-78
2023/05/04 07:50:39;;;;;;;0.00;0.00;;;18.40;74.70;;;;;;5052383;28;20044;-79
2023/05/04 07:53:05;;;;;;;0.20;0.20;;;18.30;73.00;;;;;;5065103;28;20153;-79
2023/05/04 07:55:31;;;;;;;0.20;0.20;;;18.30;72.60;;;;;;5064905;28;20165;-78
2023/05/04 07:57:56;;;;;;;0.67;0.63;;;18.40;73.10;;;;;;5062340;28;20064;-78
2023/05/04 08:00:22;;;;;;;0.57;0.57;;;18.40;73.50;;;;;;5065247;28;20052;-79
2023/05/04 08:02:48;;;;;;;0.20;0.20;;;18.80;72.10;;;;;;5048319;28;20028;-78
2023/05/04 08:05:14;;;;;;;0.37;0.37;;;18.40;73.20;;;;;;5065166;28;20418;-78
2023/05/04 08:07:40;;;;;;;0.93;0.43;;;18.80;72.40;;;;;;5064749;28;20044;-79
2023/05/04 08:10:06;;;;;;;0.40;0.40;;;18.90;72.00;;;;;;5060240;28;20082;-78
2023/05/04 08:12:32;;;;;;;0.32;0.32;;;18.60;71.60;;;;;;5052567;28;20056;-78
2023/05/04 08:14:58;;;;;;;0.30;0.30;;;18.80;70.00;;;;;;5046079;28;20115;-79
2023/05/04 08:17:23;;;;;;;0.00;0.00;;;18.70;70.10;;;;;;5063753;28;20434;-79
2023/05/04 08:19:49;;;;;;;0.00;0.00;;;21.60;63.00;;;;;;5063559;28;20025;-79
2023/05/04 08:22:15;;;;;;;0.43;0.35;;;21.90;61.30;;;;;;5064416;28;20024;-79
2023/05/04 08:24:41;;;;;;;0.20;0.20;;;21.50;61.70;;;;;;5063113;28;20036;-79
2023/05/04 08:27:07;;;;;;;0.00;0.00;;;21.60;63.50;;;;;;5062490;28;20036;-79
2023/05/04 08:29:33;;;;;;;0.20;0.20;;;22.30;61.10;;;;;;5061083;28;20031;-79
2023/05/04 08:31:59;;;;;;;0.10;0.10;;;20.10;66.40;;;;;;5043386;28;20508;-79
2023/05/04 08:34:26;;;;;;;0.27;0.27;;;19.70;69.00;;;;;;5060612;28;20040;-79
2023/05/04 08:36:51;;;;;;;0.77;0.68;;;20.40;68.10;;;;;;5042568;28;20055;-79
2023/05/04 08:39:18;;;;;;;0.93;0.83;;;20.00;68.80;;;;;;5059326;28;20033;-79
2023/05/04 08:41:43;;;;;;;1.15;0.95;;;20.00;70.10;;;;;;5057975;28;20024;-79
2023/05/04 08:44:10;;;;;;;0.10;0.10;;;20.10;69.80;;;;;;5058033;28;20038;-79
2023/05/04 08:46:39;;;;;;;0.22;0.22;;;20.20;70.10;;;;;;5058569;28;20035;-79
2023/05/04 08:49:06;;;;;;;0.10;0.10;;;20.60;69.00;;;;;;5054820;28;20823;-79
2023/05/04 08:51:35;;;;;;;;;;;20.50;68.90;;;;;;5057142;28;20044;-79
2023/05/04 08:54:05;;;;;;;0.30;0.30;;;20.60;69.30;;;;;;5037703;28;19962;-79
2023/05/04 08:56:31;;;;;;;3.30;0.90;;;20.40;68.80;;;;;;5037465;28;20037;-79
2023/05/04 08:59:00;;;;;;;3.70;1.13;;;20.30;69.00;;;;;;5059107;28;20044;-79
2023/05/04 09:01:28;;;;;;;0.13;0.13;;;20.10;70.60;;;;;;5053280;28;20523;-79
2023/05/04 09:03:55;;;;;;;0.17;0.17;;;19.90;71.30;;;;;;5057916;28;20052;-79
2023/05/04 09:06:23;;;;;;;0.00;0.00;;;19.80;71.60;;;;;;5052466;28;20048;-79
2023/05/04 09:08:49;;;;;;;0.30;0.30;;;19.90;70.90;;;;;;5062460;28;20012;-79
2023/05/04 09:11:14;;;;;;;0.20;0.20;;;19.90;71.00;;;;;;5051654;28;20507;-79
2023/05/04 09:13:41;;;;;;;0.30;0.30;;;19.80;71.00;;;;;;5061372;28;20042;-79
2023/05/04 09:16:07;;;;;;;0.20;0.20;;;20.00;71.70;;;;;;5060351;28;20055;-79
2023/05/04 09:18:38;;;;;;;0.30;0.30;;;20.20;70.70;;;;;;5055783;28;20063;-79
2023/05/04 09:21:03;;;;;;;0.20;0.20;;;20.60;70.40;;;;;;5044191;28;20393;-79
2023/05/04 09:23:29;;;;;;;0.10;0.10;;;20.60;68.90;;;;;;5061767;28;20547;-79
2023/05/04 09:25:55;;;;;;;0.17;0.17;;;20.50;69.20;;;;;;5059275;28;20902;-79
2023/05/04 09:28:34;;;;;;;0.38;0.38;;;20.60;68.90;;;;;;5061462;28;20028;-79
2023/05/04 09:31:01;;;;;;;0.20;0.20;;;21.60;67.20;;;;;;5057509;28;20083;-79
2023/05/04 09:33:27;;;;;;;1.35;0.43;;;21.30;66.60;;;;;;5060727;28;20024;-79
2023/05/04 09:35:53;;;;;;;0.30;0.30;;;21.30;68.20;;;;;;5056560;28;20036;-79
2023/05/04 09:38:31;;;;;;;0.20;0.20;;;21.20;67.80;;;;;;5059213;28;20033;-79
2023/05/04 09:40:57;;;;;;;0.10;0.10;;;21.10;68.50;;;;;;5056549;28;20039;-79
2023/05/04 09:43:23;;;;;;;0.27;0.27;;;21.20;67.40;;;;;;5060472;28;20021;-79
2023/05/04 09:45:50;;;;;;;0.10;0.10;;;21.50;67.70;;;;;;5054246;28;20040;-78
2023/05/04 09:48:20;;;;;;;0.00;0.00;;;22.40;66.60;;;;;;5054394;28;20028;-79
2023/05/04 09:50:49;;;;;;;1.67;0.45;;;23.80;63.30;;;;;;5050053;28;20064;-79
2023/05/04 09:53:18;;;;;;;0.28;0.28;;;23.40;63.30;;;;;;5048293;28;20061;-79
2023/05/04 09:55:46;;;;;;;0.20;0.20;;;25.40;60.30;;;;;;5033046;28;21094;-78
2023/05/04 09:58:15;;;;;;;0.40;0.40;;;27.10;58.80;;;;;;5049981;28;20057;-79
2023/05/04 10:00:42;;;;;;;0.65;0.65;;;25.50;56.70;;;;;;5048180;28;20095;-79
2023/05/04 10:03:09;;;;;;;2.55;0.70;;;23.80;60.80;;;;;;5060467;28;20052;-80
2023/05/04 10:05:38;;;;;;;0.17;0.17;;;22.90;63.80;;;;;;5052462;28;20553;-79
2023/05/04 10:08:05;;;;;;;1.25;0.38;;;24.30;60.30;;;;;;5061676;28;20032;-79
2023/05/04 10:10:31;;;;;;;0.00;0.00;;;25.40;59.80;;;;;;5054170;28;20815;-79
2023/05/04 10:12:57;;;;;;;0.38;0.38;;;26.30;59.00;;;;;;5055887;28;20028;-79
2023/05/04 10:15:23;;;;;;;0.20;0.20;;;23.80;62.80;;;;;;5061925;28;20032;-79
2023/05/04 10:18:17;;;;;;;0.22;0.17;;;22.70;66.10;;;;;;5061314;28;20086;-79
2023/05/04 10:20:52;;;;;;;0.17;0.17;;;22.70;65.00;;;;;;5061445;28;20484;-79
2023/05/04 10:23:44;;;;;;;0.08;0.08;;;23.10;66.40;;;;;;5032860;28;20103;-79
2023/05/04 10:26:58;;;;;;;2.08;1.17;;;24.80;61.90;;;;;;5062235;28;20017;-79
2023/05/04 10:29:27;;;;;;;0.77;0.60;;;23.40;63.80;;;;;;4997755;28;20100;-79
2023/05/04 10:31:53;;;;;;;0.52;0.52;;;23.30;65.80;;;;;;5050954;28;20595;-79
2023/05/04 10:34:45;;;;;;;0.25;0.25;;;23.00;66.10;;;;;;5059452;28;20024;-79
2023/05/04 10:37:19;;;;;;;0.43;0.35;;;23.00;68.90;;;;;;5053255;28;20063;-79
2023/05/04 10:39:54;;;;;;;0.00;0.00;;;24.10;66.80;;;;;;5056097;28;20035;-79
2023/05/04 10:42:21;;;;;;;0.10;0.10;;;24.50;64.80;;;;;;5047098;28;20029;-79
2023/05/04 10:44:53;;;;;;;0.17;0.15;;;24.30;65.60;;;;;;5062042;28;20024;-79
2023/05/04 10:47:33;;;;;;;0.63;0.45;;;24.30;65.60;;;;;;5044246;28;20024;-79
2023/05/04 10:50:14;;;;;;;0.00;0.00;;;24.50;66.20;;;;;;5043353;28;20411;-79
2023/05/04 10:52:47;;;;;;;0.00;0.00;;;23.90;69.90;;;;;;5061994;28;20047;-79
2023/05/04 10:55:14;;;;;;;0.57;0.50;;;24.40;69.30;;;;;;5059463;28;20407;-79
2023/05/04 10:57:53;;;;;;;0.20;0.20;;;25.00;66.30;;;;;;5050515;28;20093;-79
2023/05/04 11:00:19;;;;;;;0.17;0.17;;;24.80;64.80;;;;;;5056630;28;20183;-79
2023/05/04 11:02:46;;;;;;;0.22;0.22;;;24.60;61.00;;;;;;5058147;28;20792;-79
2023/05/04 11:05:17;;;;;;;0.20;0.20;;;24.60;65.20;;;;;;5062232;28;20550;-79
2023/05/04 11:07:43;;;;;;;0.10;0.10;;;24.60;63.00;;;;;;5061699;28;20028;-79
2023/05/04 11:10:21;;;;;;;0.00;0.00;;;24.80;62.30;;;;;;5062168;28;20746;-79
2023/05/04 11:12:47;;;;;;;0.00;0.00;;;24.50;63.30;;;;;;5061379;28;20127;-79
2023/05/04 11:15:13;;;;;;;0.10;0.10;;;24.40;63.40;;;;;;5061430;28;20425;-79
2023/05/04 11:17:49;;;;;;;0.57;0.57;;;24.20;65.80;;;;;;5062252;28;20097;-79
2023/05/04 11:20:23;;;;;;;0.15;0.15;;;24.60;67.00;;;;;;5048457;28;20029;-79
2023/05/04 11:22:49;;;;;;;2.25;0.68;;;23.70;66.50;;;;;;5045325;28;20036;-79
2023/05/04 11:25:16;;;;;;;0.17;0.17;;;23.40;68.60;;;;;;5064536;28;20207;-79
2023/05/04 11:27:42;;;;;;;0.25;0.25;;;23.10;68.20;;;;;;5062367;28;20036;-79
2023/05/04 11:30:08;;;;;;;;;;;23.10;68.20;;;;;;5063966;28;20039;-79
2023/05/04 11:32:38;;;;;;;;;;;23.10;67.50;;;;;;5061207;28;19912;-79
2023/05/04 11:35:07;;;;;;;1.17;0.68;;;23.10;66.40;;;;;;5063049;28;20002;-79
2023/05/04 11:37:40;;;;;;;0.10;0.10;;;23.30;71.40;;;;;;5058736;28;20028;-79
2023/05/04 11:40:21;;;;;;;0.75;0.75;;;24.00;68.00;;;;;;5057086;28;20035;-80
2023/05/04 11:42:48;;;;;;;1.30;0.30;;;23.60;68.20;;;;;;5064265;28;20020;-79
2023/05/04 11:45:16;;;;;;;0.38;0.38;;;23.00;68.70;;;;;;5057517;28;20021;-79
2023/05/04 11:47:43;;;;;;;0.38;0.38;;;23.10;69.50;;;;;;5041054;28;20115;-79
2023/05/04 11:50:10;;;;;;;1.60;1.42;;;23.10;69.50;;;;;;5056024;28;20033;-79
2023/05/04 11:52:39;;;;;;;0.10;0.10;;;23.00;68.30;;;;;;5057512;28;20584;-80
2023/05/04 11:55:07;;;;;;;0.47;0.30;;;22.70;66.80;;;;;;5050963;28;20025;-79
2023/05/04 11:57:35;;;;;;;0.52;0.25;;;22.70;68.90;;;;;;5056727;28;20031;-79
2023/05/04 12:00:03;;;;;;;0.43;0.43;;;22.80;69.30;;;;;;5057212;28;20462;-79
2023/05/04 12:02:29;;;;;;;0.43;0.43;;;23.00;68.00;;;;;;5043972;28;20122;-80
2023/05/04 12:04:55;;;;;;;0.40;0.40;;;23.00;68.30;;;;;;5050701;28;20103;-80
2023/05/04 12:07:20;;;;;;;0.43;0.43;;;23.40;68.10;;;;;;5062781;28;20449;-80
2023/05/04 12:09:47;;;;;;;0.00;0.00;;;23.80;67.10;;;;;;5062922;28;20040;-80
2023/05/04 12:12:17;;;;;;;0.10;0.10;;;24.00;66.70;;;;;;5054864;28;20036;-80
2023/05/04 12:14:50;;;;;;;0.20;0.20;;;24.50;64.50;;;;;;5061320;28;20024;-80
2023/05/04 12:17:17;;;;;;;0.35;0.35;;;24.50;63.80;;;;;;5063410;28;20077;-80
2023/05/04 12:19:48;;;;;;;0.22;0.22;;;23.80;63.20;;;;;;5045576;28;20024;-80
2023/05/04 12:22:14;;;;;;;0.85;0.52;;;24.00;65.70;;;;;;5036113;28;20125;-80
2023/05/04 12:24:40;;;;;;;0.13;0.08;;;24.00;66.80;;;;;;5064000;28;20013;-80
2023/05/04 12:27:12;;;;;;;0.20;0.20;;;23.90;65.40;;;;;;5064310;28;20080;-80
2023/05/04 12:29:38;;;;;;;0.08;0.08;;;24.10;66.70;;;;;;5058232;28;20297;-80
2023/05/04 12:32:03;;;;;;;0.20;0.20;;;24.40;65.60;;;;;;5058201;28;20040;-80
2023/05/04 12:34:30;;;;;;;0.15;0.05;;;24.00;67.50;;;;;;5056984;28;20107;-80
2023/05/04 12:36:55;;;;;;;0.35;0.35;;;24.30;65.60;;;;;;5059870;28;20029;-80
2023/05/04 12:39:21;;;;;;;0.10;0.10;;;24.20;64.90;;;;;;5058679;28;20032;-80
2023/05/04 12:41:47;;;;;;;1.10;0.63;;;23.60;65.00;;;;;;5041103;28;20082;-79
2023/05/04 12:44:13;;;;;;;0.10;0.10;;;23.50;67.80;;;;;;5063310;28;20028;-79
2023/05/04 12:46:39;;;;;;;0.35;0.35;;;23.90;65.20;;;;;;5052436;28;20079;-79
2023/05/04 12:49:05;;;;;;;0.00;0.00;;;24.00;64.90;;;;;;5059480;28;20036;-80